Time;durP1;ratioP1;P1;durP2;ratioP2;P2;SDS_P1;SDS_P2;PMS_P1;PMS_P2;Temp;Humidity;BMP_temperature;BMP_pressure;BME280_temperature;BME280_humidity;BME280_pressure;Samples;Min_cycle;Max_cycle;Signal;HPM_P1;HPM_P2
2021/01/23 00:01:18;;;;;;;4.88;3.42;;;;;;;-144.78;100.00;59851.00;5013014;28;20214;-72
2021/01/23 00:03:45;;;;;;;5.60;4.00;;;;;;;-144.78;100.00;59851.00;5013138;28;20191;-70
2021/01/23 00:06:11;;;;;;;20.10;3.95;;;;;;;-144.78;100.00;59851.00;5013406;28;20232;-70
2021/01/23 00:08:38;;;;;;;4.82;4.10;;;;;;;-144.78;100.00;59851.00;5012878;28;20233;-69
2021/01/23 00:11:04;;;;;;;6.22;3.63;;;;;;;-144.78;100.00;59851.00;5012718;28;20197;-71
2021/01/23 00:13:31;;;;;;;5.03;3.72;;;;;;;-144.78;100.00;59851.00;5013106;28;20290;-68
2021/01/23 00:15:58;;;;;;;3.05;2.75;;;;;;;-144.78;100.00;59851.00;5012889;28;20207;-68
2021/01/23 00:18:24;;;;;;;7.45;4.45;;;;;;;-144.78;100.00;59851.00;5013033;28;20268;-70
2021/01/23 00:20:50;;;;;;;4.28;2.67;;;;;;;-144.78;100.00;59851.00;5012744;28;20305;-69
2021/01/23 00:23:16;;;;;;;7.13;3.88;;;;;;;-144.78;100.00;59851.00;5012849;28;20629;-69
2021/01/23 00:25:44;;;;;;;3.63;2.55;;;;;;;-144.78;100.00;59851.00;5012716;28;20232;-71
2021/01/23 00:28:10;;;;;;;7.30;3.45;;;;;;;-144.78;100.00;59851.00;5012680;28;20747;-71
2021/01/23 00:30:36;;;;;;;3.88;3.08;;;;;;;-144.78;100.00;59851.00;5012961;28;20572;-70
2021/01/23 00:33:03;;;;;;;7.97;2.40;;;;;;;-144.78;100.00;59851.00;5012999;28;20225;-74
2021/01/23 00:35:29;;;;;;;3.10;2.60;;;;;;;-144.78;100.00;59851.00;5013078;28;20194;-67
2021/01/23 00:37:55;;;;;;;4.30;3.47;;;;;;;-144.78;100.00;59851.00;5012719;28;20203;-71
2021/01/23 00:40:22;;;;;;;3.83;2.95;;;;;;;-144.78;100.00;59851.00;5012629;28;20637;-71
2021/01/23 00:42:50;;;;;;;3.38;2.55;;;;;;;-144.78;100.00;59851.00;5012771;28;20226;-71
2021/01/23 00:45:16;;;;;;;3.08;2.80;;;;;;;-144.78;100.00;59851.00;5012821;28;20209;-70
2021/01/23 00:47:42;;;;;;;3.88;2.78;;;;;;;-144.78;100.00;59851.00;5013021;28;20212;-69
2021/01/23 00:50:09;;;;;;;7.60;2.47;;;;;;;-144.78;100.00;59851.00;5012731;28;20260;-70
2021/01/23 00:52:36;;;;;;;3.03;2.15;;;;;;;-144.78;100.00;59851.00;5012376;28;20299;-71
2021/01/23 00:55:02;;;;;;;4.75;2.70;;;;;;;-144.78;100.00;59851.00;5012790;28;20275;-70
2021/01/23 00:57:29;;;;;;;4.57;2.72;;;;;;;-144.78;100.00;59851.00;5012981;28;20638;-70
2021/01/23 00:59:56;;;;;;;2.95;2.53;;;;;;;-144.78;100.00;59851.00;5012714;28;20323;-71
2021/01/23 01:02:22;;;;;;;2.55;2.35;;;;;;;-144.78;100.00;59851.00;5012319;28;20220;-69
2021/01/23 01:04:49;;;;;;;2.38;2.15;;;;;;;-144.78;100.00;59851.00;5012696;28;20344;-70
2021/01/23 01:07:15;;;;;;;5.05;3.10;;;;;;;-144.78;100.00;59851.00;5016569;28;20690;-70
2021/01/23 01:09:41;;;;;;;3.15;2.63;;;;;;;-144.78;100.00;59851.00;5016444;28;20244;-69
2021/01/23 01:12:07;;;;;;;3.67;2.63;;;;;;;-144.78;100.00;59851.00;5016016;28;20198;-70
2021/01/23 01:14:34;;;;;;;3.85;1.88;;;;;;;-144.78;100.00;59851.00;5015969;28;20222;-71
2021/01/23 01:17:01;;;;;;;5.20;2.38;;;;;;;-144.78;100.00;59851.00;5016352;28;20201;-70
2021/01/23 01:19:27;;;;;;;6.90;3.10;;;;;;;-144.78;100.00;59851.00;5016418;28;20590;-69
2021/01/23 01:21:54;;;;;;;2.88;2.10;;;;;;;-144.78;100.00;59851.00;5016308;28;20727;-72
2021/01/23 01:24:20;;;;;;;3.60;2.00;;;;;;;-144.78;100.00;59851.00;5016434;28;20694;-71
2021/01/23 01:26:46;;;;;;;2.88;2.50;;;;;;;-144.78;100.00;59851.00;5015718;28;20237;-70
2021/01/23 01:29:12;;;;;;;3.28;2.25;;;;;;;-144.78;100.00;59851.00;5015742;28;20236;-69
2021/01/23 01:31:38;;;;;;;2.35;2.03;;;;;;;-144.78;100.00;59851.00;5015683;28;20230;-70
2021/01/23 01:34:05;;;;;;;3.28;2.97;;;;;;;-144.78;100.00;59851.00;5016276;28;20205;-70
2021/01/23 01:36:32;;;;;;;1.60;1.40;;;;;;;-144.78;100.00;59851.00;5015719;28;20204;-69
2021/01/23 01:38:58;;;;;;;3.80;2.33;;;;;;;-144.78;100.00;59851.00;5015949;28;20544;-70
2021/01/23 01:41:24;;;;;;;3.72;1.73;;;;;;;-144.78;100.00;59851.00;5015815;28;20211;-70
2021/01/23 01:43:51;;;;;;;7.28;2.88;;;;;;;-144.78;100.00;59851.00;5015775;28;20715;-70
2021/01/23 01:46:17;;;;;;;2.60;2.40;;;;;;;-144.78;100.00;59851.00;5015349;28;20230;-69
2021/01/23 01:48:43;;;;;;;2.83;1.90;;;;;;;-144.78;100.00;59851.00;5015653;28;20430;-69
2021/01/23 01:51:10;;;;;;;2.35;2.15;;;;;;;-144.78;100.00;59851.00;5015292;28;20263;-71
2021/01/23 01:53:38;;;;;;;3.75;2.05;;;;;;;-144.78;100.00;59851.00;5015565;28;20188;-71
2021/01/23 01:56:06;;;;;;;3.50;2.70;;;;;;;-144.78;100.00;59851.00;5014986;28;20196;-70
2021/01/23 01:58:32;;;;;;;4.65;2.53;;;;;;;-144.78;100.00;59851.00;5015220;28;20210;-71
2021/01/23 02:00:58;;;;;;;3.38;2.05;;;;;;;-144.78;100.00;59851.00;5015044;28;20231;-70
2021/01/23 02:03:57;;;;;;;3.03;2.72;;;;;;;-144.78;100.00;59851.00;5015241;28;20227;-69
2021/01/23 02:06:50;;;;;;;3.83;2.20;;;;;;;-144.78;100.00;59851.00;5000215;28;20639;-69
2021/01/23 02:09:28;;;;;;;8.23;3.75;;;;;;;-144.78;100.00;59851.00;5002475;28;20208;-69
2021/01/23 02:12:03;;;;;;;2.80;2.22;;;;;;;-144.78;100.00;59851.00;5014951;28;20223;-69
2021/01/23 02:14:32;;;;;;;4.80;2.40;;;;;;;-144.78;100.00;59851.00;5015500;28;20617;-70
2021/01/23 02:17:03;;;;;;;5.05;2.85;;;;;;;-144.78;100.00;59851.00;5015159;28;20205;-70
2021/01/23 02:19:39;;;;;;;2.70;1.90;;;;;;;-144.78;100.00;59851.00;5014690;28;20272;-68
2021/01/23 02:22:28;;;;;;;3.70;2.45;;;;;;;-144.78;100.00;59851.00;5014858;28;20340;-69
2021/01/23 02:24:56;;;;;;;2.58;2.15;;;;;;;-144.78;100.00;59851.00;5002909;28;20223;-69
2021/01/23 02:27:40;;;;;;;3.13;2.53;;;;;;;-144.78;100.00;59851.00;5014421;28;20233;-70
2021/01/23 02:30:18;;;;;;;3.42;2.78;;;;;;;-144.78;100.00;59851.00;5014854;28;20201;-69
2021/01/23 02:32:50;;;;;;;6.53;3.17;;;;;;;-144.78;100.00;59851.00;5015059;28;20197;-70
2021/01/23 02:35:17;;;;;;;3.10;2.40;;;;;;;-144.78;100.00;59851.00;5014780;28;20201;-70
2021/01/23 02:37:45;;;;;;;4.85;2.50;;;;;;;-144.78;100.00;59851.00;5014875;28;20606;-70
2021/01/23 02:40:13;;;;;;;4.82;2.60;;;;;;;-144.78;100.00;59851.00;5014994;28;20561;-70
2021/01/23 02:42:39;;;;;;;2.47;1.83;;;;;;;-144.78;100.00;59851.00;5015160;28;20305;-70
2021/01/23 02:45:07;;;;;;;4.28;2.88;;;;;;;-144.78;100.00;59851.00;5014629;28;20258;-70
2021/01/23 02:47:34;;;;;;;4.13;2.75;;;;;;;-144.78;100.00;59851.00;5014383;28;20215;-70
2021/01/23 02:50:02;;;;;;;2.97;2.42;;;;;;;-144.78;100.00;59851.00;5014248;28;20256;-70
2021/01/23 02:52:42;;;;;;;3.80;2.25;;;;;;;-144.78;100.00;59851.00;5014650;28;20304;-70
2021/01/23 02:55:13;;;;;;;3.47;2.95;;;;;;;-144.78;100.00;59851.00;5014691;28;20190;-70
2021/01/23 02:57:41;;;;;;;3.53;2.47;;;;;;;-144.78;100.00;59851.00;5014307;28;20200;-69
2021/01/23 03:00:10;;;;;;;3.30;2.50;;;;;;;-144.78;100.00;59851.00;5014528;28;20191;-70
2021/01/23 03:02:42;;;;;;;4.07;2.88;;;;;;;-144.78;100.00;59851.00;5014063;28;20207;-70
2021/01/23 03:05:12;;;;;;;2.80;2.10;;;;;;;-144.78;100.00;59851.00;5014458;28;20304;-71
2021/01/23 03:07:39;;;;;;;4.20;2.28;;;;;;;-144.78;100.00;59851.00;5014136;28;20673;-70
2021/01/23 03:10:06;;;;;;;4.50;2.58;;;;;;;-144.78;100.00;59851.00;5014363;28;20201;-71
2021/01/23 03:12:32;;;;;;;7.35;3.67;;;;;;;-144.78;100.00;59851.00;5013756;28;20209;-70
2021/01/23 03:14:59;;;;;;;3.88;2.92;;;;;;;-144.78;100.00;59851.00;5014024;28;20209;-70
2021/01/23 03:17:25;;;;;;;5.97;3.17;;;;;;;-144.78;100.00;59851.00;5013864;28;20675;-69
2021/01/23 03:19:51;;;;;;;7.45;3.92;;;;;;;-144.78;100.00;59851.00;5014127;28;20584;-70
2021/01/23 03:22:19;;;;;;;6.75;3.80;;;;;;;-144.78;100.00;59851.00;5013607;28;20307;-70
2021/01/23 03:24:45;;;;;;;6.35;4.05;;;;;;;-144.78;100.00;59851.00;5013551;28;20295;-69
2021/01/23 03:27:12;;;;;;;7.55;3.67;;;;;;;-144.78;100.00;59851.00;5013337;28;20228;-69
2021/01/23 03:29:38;;;;;;;9.02;4.97;;;;;;;-144.78;100.00;59851.00;5012878;28;20319;-68
2021/01/23 03:32:04;;;;;;;8.35;3.97;;;;;;;-144.78;100.00;59851.00;5013549;28;20255;-71
2021/01/23 03:34:31;;;;;;;4.68;2.83;;;;;;;-144.78;100.00;59851.00;5013201;28;20280;-70
2021/01/23 03:36:57;;;;;;;5.55;2.95;;;;;;;-144.78;100.00;59851.00;5013292;28;20239;-71
2021/01/23 03:39:24;;;;;;;7.80;3.40;;;;;;;-144.78;100.00;59851.00;5013356;28;20283;-70
2021/01/23 03:41:50;;;;;;;6.57;3.35;;;;;;;-144.78;100.00;59851.00;5013531;28;20208;-71
2021/01/23 03:44:16;;;;;;;7.40;4.05;;;;;;;-144.78;100.00;59851.00;5013540;28;20194;-69
2021/01/23 03:46:43;;;;;;;9.93;4.53;;;;;;;-144.78;100.00;59851.00;5013326;28;20214;-69
2021/01/23 03:49:09;;;;;;;6.47;4.30;;;;;;;-144.78;100.00;59851.00;5013217;28;20567;-69
2021/01/23 03:51:35;;;;;;;6.47;4.30;;;;;;;-144.78;100.00;59851.00;5013361;28;20232;-71
2021/01/23 03:54:01;;;;;;;9.02;4.78;;;;;;;-144.78;100.00;59851.00;5013023;28;20241;-69
2021/01/23 03:56:28;;;;;;;9.10;4.00;;;;;;;-144.78;100.00;59851.00;5012971;28;20344;-71
2021/01/23 03:58:54;;;;;;;8.82;4.95;;;;;;;-144.78;100.00;59851.00;5013271;28;20249;-70
2021/01/23 04:01:21;;;;;;;6.32;4.00;;;;;;;-144.78;100.00;59851.00;5012903;28;20239;-70
2021/01/23 04:03:47;;;;;;;7.47;4.93;;;;;;;-144.78;100.00;59851.00;5012716;28;20226;-71
2021/01/23 04:06:13;;;;;;;12.82;4.70;;;;;;;-144.78;100.00;59851.00;5013192;28;20739;-69
2021/01/23 04:08:39;;;;;;;6.90;3.65;;;;;;;-144.78;100.00;59851.00;5012953;28;20246;-70
2021/01/23 04:11:06;;;;;;;9.95;4.40;;;;;;;-144.78;100.00;59851.00;5012727;28;20684;-70
2021/01/23 04:13:33;;;;;;;10.00;4.82;;;;;;;-144.78;100.00;59851.00;5013048;28;20554;-69
2021/01/23 04:15:59;;;;;;;5.45;4.53;;;;;;;-144.78;100.00;59851.00;5013132;28;20522;-70
2021/01/23 04:18:25;;;;;;;7.82;4.47;;;;;;;-144.78;100.00;59851.00;5012643;28;20234;-68
2021/01/23 04:20:52;;;;;;;8.00;4.70;;;;;;;-144.78;100.00;59851.00;5013142;28;20224;-70
2021/01/23 04:23:18;;;;;;;7.45;4.40;;;;;;;-144.78;100.00;59851.00;5012885;28;20216;-70
2021/01/23 04:25:44;;;;;;;8.75;5.50;;;;;;;-144.78;100.00;59851.00;5013382;28;20945;-70
2021/01/23 04:28:10;;;;;;;7.93;3.80;;;;;;;-144.78;100.00;59851.00;5013033;28;20240;-70
2021/01/23 04:30:37;;;;;;;8.55;4.22;;;;;;;-144.78;100.00;59851.00;5013033;28;20259;-69
2021/01/23 04:33:03;;;;;;;7.28;4.53;;;;;;;-144.78;100.00;59851.00;5012392;28;20217;-70
2021/01/23 04:35:30;;;;;;;8.70;4.63;;;;;;;-144.78;100.00;59851.00;5012799;28;20616;-69
2021/01/23 04:37:56;;;;;;;7.32;4.28;;;;;;;-144.78;100.00;59851.00;5012542;28;20198;-71
2021/01/23 04:40:22;;;;;;;10.05;5.45;;;;;;;-144.78;100.00;59851.00;5011601;28;20336;-70
2021/01/23 04:42:48;;;;;;;11.63;5.25;;;;;;;-144.78;100.00;59851.00;5012649;28;20193;-70
2021/01/23 04:45:15;;;;;;;14.07;5.57;;;;;;;-144.78;100.00;59851.00;5012789;28;20233;-70
2021/01/23 04:47:42;;;;;;;9.75;5.32;;;;;;;-144.78;100.00;59851.00;5012184;28;20216;-68
2021/01/23 04:50:10;;;;;;;6.95;4.25;;;;;;;-144.78;100.00;59851.00;5012238;28;20238;-70
2021/01/23 04:52:38;;;;;;;8.13;5.13;;;;;;;-144.78;100.00;59851.00;5012520;28;20537;-70
2021/01/23 04:55:05;;;;;;;10.18;4.80;;;;;;;-144.78;100.00;59851.00;5012485;28;20668;-69
2021/01/23 04:57:32;;;;;;;7.38;4.53;;;;;;;-144.78;100.00;59851.00;5012224;28;20648;-70
2021/01/23 04:59:58;;;;;;;10.77;5.18;;;;;;;-144.78;100.00;59851.00;5012233;28;20313;-70
2021/01/23 05:02:24;;;;;;;10.48;4.75;;;;;;;-144.78;100.00;59851.00;5012282;28;20281;-70
2021/01/23 05:04:55;;;;;;;8.27;4.90;;;;;;;-144.78;100.00;59851.00;5012387;28;20305;-70
2021/01/23 05:07:30;;;;;;;7.53;5.65;;;;;;;-144.78;100.00;59851.00;5012446;28;20263;-70
2021/01/23 05:09:56;;;;;;;9.27;4.50;;;;;;;-144.78;100.00;59851.00;5012136;28;20260;-70
2021/01/23 05:12:36;;;;;;;7.30;4.57;;;;;;;-144.78;100.00;59851.00;5012224;28;20675;-70
2021/01/23 05:15:05;;;;;;;8.95;5.40;;;;;;;-144.78;100.00;59851.00;5012554;28;20579;-70
2021/01/23 05:17:32;;;;;;;12.45;5.32;;;;;;;-144.78;100.00;59851.00;5012643;28;20227;-70
2021/01/23 05:19:59;;;;;;;12.73;7.00;;;;;;;-144.78;100.00;59851.00;5012562;28;20712;-71
2021/01/23 05:22:25;;;;;;;8.90;5.28;;;;;;;-144.78;100.00;59851.00;5012624;28;20291;-70
2021/01/23 05:24:53;;;;;;;11.02;5.63;;;;;;;-144.78;100.00;59851.00;5012600;28;20201;-71
2021/01/23 05:27:20;;;;;;;11.57;5.13;;;;;;;-144.78;100.00;59851.00;5012047;28;20226;-71
2021/01/23 05:29:57;;;;;;;14.00;6.30;;;;;;;-144.78;100.00;59851.00;5012194;28;20296;-69
2021/01/23 05:32:24;;;;;;;8.25;4.50;;;;;;;-144.78;100.00;59851.00;5012394;28;20197;-71
2021/01/23 05:34:50;;;;;;;13.20;6.38;;;;;;;-144.78;100.00;59851.00;5012188;28;20297;-68
2021/01/23 05:37:37;;;;;;;10.80;6.13;;;;;;;-144.78;100.00;59851.00;5012307;28;20197;-70
2021/01/23 05:40:04;;;;;;;8.40;5.95;;;;;;;-144.78;100.00;59851.00;5012359;28;20517;-70
2021/01/23 05:42:31;;;;;;;8.73;4.63;;;;;;;-144.78;100.00;59851.00;5012383;28;20231;-70
2021/01/23 05:45:09;;;;;;;9.65;5.45;;;;;;;-144.78;100.00;59851.00;5012171;28;20656;-70
2021/01/23 05:47:36;;;;;;;10.38;5.18;;;;;;;-144.78;100.00;59851.00;5012026;28;20256;-71
2021/01/23 05:50:03;;;;;;;13.80;6.18;;;;;;;-144.78;100.00;59851.00;5012226;28;20229;-71
2021/01/23 05:52:30;;;;;;;12.02;4.90;;;;;;;-144.78;100.00;59851.00;5014608;28;20237;-70
2021/01/23 05:54:57;;;;;;;10.38;5.45;;;;;;;-144.78;100.00;59851.00;5015588;28;20277;-71
2021/01/23 05:57:25;;;;;;;10.80;5.30;;;;;;;-144.78;100.00;59851.00;5015467;28;20210;-71
2021/01/23 05:59:51;;;;;;;7.47;4.63;;;;;;;-144.78;100.00;59851.00;5015520;28;20300;-72
2021/01/23 06:02:18;;;;;;;10.43;5.15;;;;;;;-144.78;100.00;59851.00;5015423;28;20213;-69
2021/01/23 06:04:48;;;;;;;9.45;3.90;;;;;;;-144.78;100.00;59851.00;5015249;28;20194;-69
2021/01/23 06:07:42;;;;;;;8.65;5.00;;;;;;;-144.78;100.00;59851.00;5015307;28;20665;-69
2021/01/23 06:10:50;;;;;;;5.70;4.10;;;;;;;-144.78;100.00;59851.00;5015109;28;20202;-70
2021/01/23 06:13:45;;;;;;;5.70;3.83;;;;;;;-144.78;100.00;59851.00;5015286;28;20217;-72
2021/01/23 06:16:42;;;;;;;8.02;4.90;;;;;;;-144.78;100.00;59851.00;4998036;28;20253;-71
2021/01/23 06:19:38;;;;;;;8.15;4.95;;;;;;;-144.78;100.00;59851.00;5015273;28;20292;-70
2021/01/23 06:22:05;;;;;;;6.78;4.20;;;;;;;-144.78;100.00;59851.00;5015471;28;20642;-70
2021/01/23 06:24:54;;;;;;;6.95;3.92;;;;;;;-144.78;100.00;59851.00;5014990;28;20236;-71
2021/01/23 06:27:20;;;;;;;11.07;4.80;;;;;;;-144.78;100.00;59851.00;5014938;28;20218;-71
2021/01/23 06:29:48;;;;;;;7.00;4.35;;;;;;;-144.78;100.00;59851.00;5014586;28;20315;-70
2021/01/23 06:32:28;;;;;;;5.15;3.72;;;;;;;-144.78;100.00;59851.00;5014676;28;20553;-69
2021/01/23 06:34:55;;;;;;;5.43;4.43;;;;;;;-144.78;100.00;59851.00;5014485;28;20293;-70
2021/01/23 06:37:23;;;;;;;7.00;3.45;;;;;;;-144.78;100.00;59851.00;5014632;28;20202;-70
2021/01/23 06:40:17;;;;;;;5.75;4.10;;;;;;;-144.78;100.00;59851.00;5014981;28;20197;-69
2021/01/23 06:42:47;;;;;;;6.47;3.70;;;;;;;-144.78;100.00;59851.00;4968739;28;20213;-70
2021/01/23 06:45:25;;;;;;;5.95;3.70;;;;;;;-144.78;100.00;59851.00;5014901;28;20189;-70
2021/01/23 06:47:55;;;;;;;5.70;4.03;;;;;;;-144.78;100.00;59851.00;5014552;28;20573;-70
2021/01/23 06:50:33;;;;;;;12.73;4.35;;;;;;;-144.78;100.00;59851.00;5014649;28;20252;-70
2021/01/23 06:53:03;;;;;;;7.28;4.43;;;;;;;-144.78;100.00;59851.00;5014535;28;20292;-68
2021/01/23 06:55:46;;;;;;;4.70;3.78;;;;;;;-144.78;100.00;59851.00;5014817;28;20197;-70
2021/01/23 06:58:23;;;;;;;11.05;4.20;;;;;;;-144.78;100.00;59851.00;5014460;28;20190;-72
2021/01/23 07:00:52;;;;;;;7.18;4.32;;;;;;;-144.78;100.00;59851.00;5014326;28;20278;-69
2021/01/23 07:03:18;;;;;;;7.97;4.47;;;;;;;-144.78;100.00;59851.00;5013571;28;20308;-71
2021/01/23 07:05:46;;;;;;;6.78;4.20;;;;;;;-144.78;100.00;59851.00;5014042;28;20198;-69
2021/01/23 07:08:23;;;;;;;7.47;3.40;;;;;;;-144.78;100.00;59851.00;5014283;28;20625;-70
2021/01/23 07:11:05;;;;;;;4.85;3.42;;;;;;;-144.78;100.00;59851.00;5014517;28;20640;-72
2021/01/23 07:13:32;;;;;;;5.88;3.78;;;;;;;-144.78;100.00;59851.00;5014140;28;20221;-70
2021/01/23 07:15:59;;;;;;;10.07;4.35;;;;;;;-144.78;100.00;59851.00;5014261;28;20297;-70
2021/01/23 07:18:26;;;;;;;7.03;4.20;;;;;;;-144.78;100.00;59851.00;5014255;28;20216;-70
2021/01/23 07:20:52;;;;;;;6.20;3.90;;;;;;;-144.78;100.00;59851.00;5014027;28;20245;-70
2021/01/23 07:23:19;;;;;;;6.32;3.67;;;;;;;-144.78;100.00;59851.00;5013981;28;20210;-70
2021/01/23 07:25:46;;;;;;;4.65;3.53;;;;;;;-144.78;100.00;59851.00;5014122;28;20206;-70
2021/01/23 07:28:17;;;;;;;7.72;4.70;;;;;;;-144.78;100.00;59851.00;5013516;28;20276;-70
2021/01/23 07:30:43;;;;;;;6.55;3.40;;;;;;;-144.78;100.00;59851.00;5014373;28;20720;-70
2021/01/23 07:33:11;;;;;;;4.95;3.30;;;;;;;-144.78;100.00;59851.00;5013931;28;20233;-69
2021/01/23 07:35:38;;;;;;;4.22;3.05;;;;;;;-144.78;100.00;59851.00;5014143;28;20194;-71
2021/01/23 07:38:05;;;;;;;8.60;4.80;;;;;;;-144.78;100.00;59851.00;5013240;28;20439;-69
2021/01/23 07:40:35;;;;;;;8.80;3.97;;;;;;;-144.78;100.00;59851.00;5014098;28;20639;-68
2021/01/23 07:43:03;;;;;;;7.78;4.22;;;;;;;-144.78;100.00;59851.00;5013800;28;20585;-68
2021/01/23 07:45:29;;;;;;;5.97;3.22;;;;;;;-144.78;100.00;59851.00;5013388;28;20260;-68
2021/01/23 07:47:56;;;;;;;8.00;4.13;;;;;;;-144.78;100.00;59851.00;5013827;28;20215;-69
2021/01/23 07:50:24;;;;;;;7.20;4.28;;;;;;;-144.78;100.00;59851.00;5013620;28;20237;-69
2021/01/23 07:52:50;;;;;;;6.90;3.10;;;;;;;-144.78;100.00;59851.00;5013651;28;20329;-70
2021/01/23 07:55:16;;;;;;;5.85;3.30;;;;;;;-144.78;100.00;59851.00;5013770;28;20206;-70
2021/01/23 07:57:42;;;;;;;5.35;3.55;;;;;;;-144.78;100.00;59851.00;5013894;28;20199;-70
2021/01/23 08:00:21;;;;;;;4.78;4.05;;;;;;;-144.78;100.00;59851.00;5013579;28;20230;-70
2021/01/23 08:02:52;;;;;;;5.43;3.90;;;;;;;-144.78;100.00;59851.00;5013872;28;20189;-69
2021/01/23 08:05:18;;;;;;;10.27;3.65;;;;;;;-144.78;100.00;59851.00;5013511;28;20198;-69
2021/01/23 08:07:46;;;;;;;5.28;2.70;;;;;;;-144.78;100.00;59851.00;5013797;28;20391;-71
2021/01/23 08:10:16;;;;;;;4.13;2.67;;;;;;;-144.78;100.00;59851.00;5013556;28;20242;-69
2021/01/23 08:12:44;;;;;;;4.35;3.50;;;;;;;-144.78;100.00;59851.00;5013712;28;20226;-70
2021/01/23 08:15:11;;;;;;;5.75;3.20;;;;;;;-144.78;100.00;59851.00;5013293;28;20293;-70
2021/01/23 08:17:40;;;;;;;3.67;2.90;;;;;;;-144.78;100.00;59851.00;5013534;28;20273;-70
2021/01/23 08:20:07;;;;;;;5.63;3.15;;;;;;;-144.78;100.00;59851.00;5013754;28;20545;-70
2021/01/23 08:22:54;;;;;;;2.92;2.63;;;;;;;-144.78;100.00;59851.00;5013424;28;20664;-70
2021/01/23 08:25:27;;;;;;;2.90;2.33;;;;;;;-144.78;100.00;59851.00;5013042;28;20211;-69
2021/01/23 08:27:54;;;;;;;4.53;3.17;;;;;;;-144.78;100.00;59851.00;5013389;28;20609;-71
2021/01/23 08:30:21;;;;;;;7.05;2.78;;;;;;;-144.78;100.00;59851.00;5013218;28;20187;-71
2021/01/23 08:32:48;;;;;;;6.38;2.25;;;;;;;-144.78;100.00;59851.00;5013395;28;20203;-69
2021/01/23 08:35:14;;;;;;;7.47;3.15;;;;;;;-144.78;100.00;59851.00;5013262;28;20304;-70
2021/01/23 08:37:40;;;;;;;5.20;3.53;;;;;;;-144.78;100.00;59851.00;5012790;28;20294;-69
2021/01/23 08:40:08;;;;;;;4.35;3.17;;;;;;;-144.78;100.00;59851.00;5013043;28;20736;-69
2021/01/23 08:42:35;;;;;;;3.90;2.70;;;;;;;-144.78;100.00;59851.00;5012986;28;20206;-70
2021/01/23 08:45:01;;;;;;;9.95;3.10;;;;;;;-144.78;100.00;59851.00;5013098;28;20690;-70
2021/01/23 08:47:27;;;;;;;3.20;2.90;;;;;;;-144.78;100.00;59851.00;5012719;28;20369;-70
2021/01/23 08:49:53;;;;;;;4.07;2.28;;;;;;;-144.78;100.00;59851.00;5013164;28;20191;-69
2021/01/23 08:52:20;;;;;;;8.45;3.22;;;;;;;-144.78;100.00;59851.00;5012870;28;20297;-69
2021/01/23 08:54:46;;;;;;;4.30;2.65;;;;;;;-144.78;100.00;59851.00;5012822;28;20227;-70
2021/01/23 08:57:12;;;;;;;4.95;4.00;;;;;;;-144.78;100.00;59851.00;5012885;28;20602;-70
2021/01/23 08:59:39;;;;;;;4.93;3.25;;;;;;;-144.78;100.00;59851.00;5012867;28;20273;-69
2021/01/23 09:02:05;;;;;;;5.28;3.13;;;;;;;-144.78;100.00;59851.00;5012771;28;20578;-69
2021/01/23 09:04:32;;;;;;;6.63;2.50;;;;;;;-144.78;100.00;59851.00;5012569;28;20198;-69
2021/01/23 09:06:58;;;;;;;3.72;2.30;;;;;;;-144.78;100.00;59851.00;5012727;28;20206;-69
2021/01/23 09:09:24;;;;;;;3.03;2.55;;;;;;;-144.78;100.00;59851.00;5012720;28;20215;-69
2021/01/23 09:11:51;;;;;;;6.97;2.60;;;;;;;-144.78;100.00;59851.00;5012519;28;20242;-70
2021/01/23 09:14:17;;;;;;;3.60;2.55;;;;;;;-144.78;100.00;59851.00;5012319;28;20191;-70
2021/01/23 09:16:44;;;;;;;9.80;2.80;;;;;;;-144.78;100.00;59851.00;5012665;28;20238;-69
2021/01/23 09:19:10;;;;;;;3.05;2.75;;;;;;;-144.78;100.00;59851.00;5012657;28;20187;-71
2021/01/23 09:21:36;;;;;;;4.10;2.63;;;;;;;-144.78;100.00;59851.00;5012459;28;20187;-69
2021/01/23 09:24:03;;;;;;;4.65;2.85;;;;;;;-144.78;100.00;59851.00;5012390;28;20206;-69
2021/01/23 09:26:29;;;;;;;2.92;2.50;;;;;;;-144.78;100.00;59851.00;5013475;28;20242;-69
2021/01/23 09:28:55;;;;;;;3.30;2.55;;;;;;;-144.78;100.00;59851.00;5016013;28;20234;-70
2021/01/23 09:31:22;;;;;;;2.55;1.80;;;;;;;-144.78;100.00;59851.00;5016490;28;20622;-69
2021/01/23 09:33:50;;;;;;;5.47;2.85;;;;;;;-144.78;100.00;59851.00;5016411;28;20607;-69
2021/01/23 09:36:16;;;;;;;3.08;1.95;;;;;;;-144.78;100.00;59851.00;5016167;28;20214;-69
2021/01/23 09:38:43;;;;;;;2.13;1.92;;;;;;;-144.78;100.00;59851.00;5015889;28;20199;-70
2021/01/23 09:41:11;;;;;;;2.15;1.90;;;;;;;-144.78;100.00;59851.00;5016322;28;20540;-69
2021/01/23 09:43:38;;;;;;;5.47;2.40;;;;;;;-144.78;100.00;59851.00;5016304;28;20643;-70
2021/01/23 09:46:04;;;;;;;6.32;1.90;;;;;;;-144.78;100.00;59851.00;5016030;28;20562;-69
2021/01/23 09:48:31;;;;;;;3.35;2.35;;;;;;;-144.78;100.00;59851.00;5015364;28;20310;-69
2021/01/23 09:50:58;;;;;;;4.45;2.47;;;;;;;-144.78;100.00;59851.00;5015807;28;20206;-69
2021/01/23 09:53:24;;;;;;;4.15;2.10;;;;;;;-144.78;100.00;59851.00;5015663;28;20214;-70
2021/01/23 09:55:51;;;;;;;2.88;2.13;;;;;;;-144.78;100.00;59851.00;5015205;28;20210;-70
2021/01/23 09:58:17;;;;;;;1.80;1.65;;;;;;;-144.78;100.00;59851.00;5015828;28;20564;-69
2021/01/23 10:00:46;;;;;;;3.50;1.85;;;;;;;-144.78;100.00;59851.00;5015493;28;20206;-69
2021/01/23 10:03:12;;;;;;;5.45;2.30;;;;;;;-144.78;100.00;59851.00;5015232;28;20217;-70
2021/01/23 10:05:38;;;;;;;4.15;2.13;;;;;;;-144.78;100.00;59851.00;5015432;28;20191;-69
2021/01/23 10:08:07;;;;;;;4.30;2.50;;;;;;;-144.78;100.00;59851.00;5015451;28;20316;-70
2021/01/23 10:10:33;;;;;;;4.07;2.05;;;;;;;-144.78;100.00;59851.00;5014944;28;20209;-69
2021/01/23 10:13:00;;;;;;;3.00;2.20;;;;;;;-144.78;100.00;59851.00;5015126;28;20191;-70
2021/01/23 10:15:26;;;;;;;3.78;2.75;;;;;;;-144.78;100.00;59851.00;5015243;28;20265;-69
2021/01/23 10:17:52;;;;;;;4.68;2.28;;;;;;;-144.78;100.00;59851.00;5015285;28;20211;-71
2021/01/23 10:20:19;;;;;;;1.90;1.60;;;;;;;-144.78;100.00;59851.00;5014988;28;20206;-70
2021/01/23 10:22:45;;;;;;;4.30;2.40;;;;;;;-144.78;100.00;59851.00;5014878;28;20249;-70
2021/01/23 10:25:13;;;;;;;2.45;1.58;;;;;;;-144.78;100.00;59851.00;5015087;28;20639;-70
2021/01/23 10:27:39;;;;;;;3.03;1.88;;;;;;;-144.78;100.00;59851.00;5014904;28;20646;-69
2021/01/23 10:30:07;;;;;;;3.65;1.75;;;;;;;-144.78;100.00;59851.00;5015592;28;20219;-70
2021/01/23 10:32:33;;;;;;;1.85;1.55;;;;;;;-144.78;100.00;59851.00;5015260;28;20210;-71
2021/01/23 10:35:00;;;;;;;2.22;2.03;;;;;;;-144.78;100.00;59851.00;5015174;28;20241;-70
2021/01/23 10:37:26;;;;;;;3.33;2.15;;;;;;;-144.78;100.00;59851.00;5014600;28;20292;-71
2021/01/23 10:39:52;;;;;;;5.90;1.90;;;;;;;-144.78;100.00;59851.00;5014564;28;20249;-70
2021/01/23 10:42:20;;;;;;;1.52;1.42;;;;;;;-144.78;100.00;59851.00;5015078;28;20327;-70
2021/01/23 10:44:46;;;;;;;2.50;2.30;;;;;;;-144.78;100.00;59851.00;5014720;28;20218;-69
2021/01/23 10:47:13;;;;;;;4.13;1.98;;;;;;;-144.78;100.00;59851.00;5014696;28;20215;-69
2021/01/23 10:49:39;;;;;;;2.85;1.98;;;;;;;-144.78;100.00;59851.00;5014503;28;20300;-69
2021/01/23 10:52:07;;;;;;;2.17;1.75;;;;;;;-144.78;100.00;59851.00;5014523;28;20559;-71
2021/01/23 10:54:34;;;;;;;2.35;1.10;;;;;;;-144.78;100.00;59851.00;5014674;28;20600;-69
2021/01/23 10:57:02;;;;;;;4.28;2.58;;;;;;;-144.78;100.00;59851.00;5014787;28;20203;-70
2021/01/23 10:59:29;;;;;;;2.10;1.67;;;;;;;-144.78;100.00;59851.00;5014606;28;20979;-70
2021/01/23 11:01:55;;;;;;;2.45;1.90;;;;;;;-144.78;100.00;59851.00;5014681;28;20241;-72
2021/01/23 11:04:22;;;;;;;6.10;1.70;;;;;;;-144.78;100.00;59851.00;5014290;28;20202;-71
2021/01/23 11:06:48;;;;;;;2.88;2.60;;;;;;;-144.78;100.00;59851.00;5014233;28;20213;-71
2021/01/23 11:09:15;;;;;;;1.90;1.70;;;;;;;-144.78;100.00;59851.00;5014233;28;20298;-69
2021/01/23 11:11:42;;;;;;;2.88;1.65;;;;;;;-144.78;100.00;59851.00;5014423;28;20578;-69
2021/01/23 11:14:08;;;;;;;2.72;2.00;;;;;;;-144.78;100.00;59851.00;5014141;28;20299;-69
2021/01/23 11:16:36;;;;;;;3.08;1.75;;;;;;;-144.78;100.00;59851.00;5014042;28;20245;-70